sensor_id;sensor_type;location;lat;lon;timestamp;temperature;humidity
15178;DHT22;7689;53.612;-2.416;2023-01-23T00:02:25;4.00;99.90
15178;DHT22;7689;53.612;-2.416;2023-01-23T00:04:51;3.90;99.90
15178;DHT22;7689;53.612;-2.416;2023-01-23T00:07:17;3.90;99.90
15178;DHT22;7689;53.612;-2.416;2023-01-23T00:09:42;3.80;99.90
15178;DHT22;7689;53.612;-2.416;2023-01-23T00:12:08;3.80;99.90
15178;DHT22;7689;53.612;-2.416;2023-01-23T00:14:33;3.70;99.90
15178;DHT22;7689;53.612;-2.416;2023-01-23T00:16:59;3.70;99.90
15178;DHT22;7689;53.612;-2.416;2023-01-23T00:19:24;3.60;99.90
15178;DHT22;7689;53.612;-2.416;2023-01-23T00:21:50;3.70;99.90
15178;DHT22;7689;53.612;-2.416;2023-01-23T00:24:15;3.70;99.90
15178;DHT22;7689;53.612;-2.416;2023-01-23T00:26:41;3.70;99.90
15178;DHT22;7689;53.612;-2.416;2023-01-23T00:29:06;3.70;99.90
15178;DHT22;7689;53.612;-2.416;2023-01-23T00:31:33;2.50;99.90
15178;DHT22;7689;53.612;-2.416;2023-01-23T00:34:00;3.80;99.90
15178;DHT22;7689;53.612;-2.416;2023-01-23T00:36:31;3.70;99.90
15178;DHT22;7689;53.612;-2.416;2023-01-23T00:38:57;3.70;99.90
15178;DHT22;7689;53.612;-2.416;2023-01-23T00:41:22;3.70;99.90
15178;DHT22;7689;53.612;-2.416;2023-01-23T00:43:48;3.70;99.90
15178;DHT22;7689;53.612;-2.416;2023-01-23T00:46:16;3.70;99.90
15178;DHT22;7689;53.612;-2.416;2023-01-23T00:48:41;3.70;99.90
15178;DHT22;7689;53.612;-2.416;2023-01-23T00:51:07;3.70;99.90
15178;DHT22;7689;53.612;-2.416;2023-01-23T00:53:33;3.80;99.90
15178;DHT22;7689;53.612;-2.416;2023-01-23T00:55:58;3.80;99.90
15178;DHT22;7689;53.612;-2.416;2023-01-23T00:58:24;3.80;99.90
15178;DHT22;7689;53.612;-2.416;2023-01-23T01:00:49;3.90;99.90
15178;DHT22;7689;53.612;-2.416;2023-01-23T01:03:15;3.90;99.90
15178;DHT22;7689;53.612;-2.416;2023-01-23T01:05:41;3.80;99.90
15178;DHT22;7689;53.612;-2.416;2023-01-23T01:08:06;3.80;99.90
15178;DHT22;7689;53.612;-2.416;2023-01-23T01:10:32;3.80;99.90
15178;DHT22;7689;53.612;-2.416;2023-01-23T01:13:00;3.90;99.90
15178;DHT22;7689;53.612;-2.416;2023-01-23T01:15:25;3.90;99.90
15178;DHT22;7689;53.612;-2.416;2023-01-23T01:17:51;3.80;99.90
15178;DHT22;7689;53.612;-2.416;2023-01-23T01:20:20;3.90;99.90
15178;DHT22;7689;53.612;-2.416;2023-01-23T01:22:47;3.90;99.90
15178;DHT22;7689;53.612;-2.416;2023-01-23T01:25:14;3.90;99.90
15178;DHT22;7689;53.612;-2.416;2023-01-23T01:27:39;3.90;99.90
15178;DHT22;7689;53.612;-2.416;2023-01-23T01:30:05;4.00;99.90
15178;DHT22;7689;53.612;-2.416;2023-01-23T01:32:34;4.10;99.90
15178;DHT22;7689;53.612;-2.416;2023-01-23T01:35:00;4.20;99.90
15178;DHT22;7689;53.612;-2.416;2023-01-23T01:37:25;4.20;99.90
15178;DHT22;7689;53.612;-2.416;2023-01-23T01:39:51;4.10;99.90
15178;DHT22;7689;53.612;-2.416;2023-01-23T01:42:16;4.00;99.90
15178;DHT22;7689;53.612;-2.416;2023-01-23T01:44:58;4.00;99.90
15178;DHT22;7689;53.612;-2.416;2023-01-23T01:47:24;4.00;99.90
15178;DHT22;7689;53.612;-2.416;2023-01-23T01:49:50;4.00;99.90
15178;DHT22;7689;53.612;-2.416;2023-01-23T01:52:16;4.10;99.90
15178;DHT22;7689;53.612;-2.416;2023-01-23T01:54:47;4.20;99.90
15178;DHT22;7689;53.612;-2.416;2023-01-23T01:57:17;4.20;99.90
15178;DHT22;7689;53.612;-2.416;2023-01-23T02:02:21;4.20;99.90
15178;DHT22;7689;53.612;-2.416;2023-01-23T02:04:48;4.90;99.90
15178;DHT22;7689;53.612;-2.416;2023-01-23T02:07:21;4.20;99.90
15178;DHT22;7689;53.612;-2.416;2023-01-23T02:09:48;4.10;99.90
15178;DHT22;7689;53.612;-2.416;2023-01-23T02:12:14;4.20;99.90
15178;DHT22;7689;53.612;-2.416;2023-01-23T02:14:39;4.20;99.90
15178;DHT22;7689;53.612;-2.416;2023-01-23T02:17:05;4.20;99.90
15178;DHT22;7689;53.612;-2.416;2023-01-23T02:19:44;4.30;99.90
15178;DHT22;7689;53.612;-2.416;2023-01-23T02:22:24;4.20;99.90
15178;DHT22;7689;53.612;-2.416;2023-01-23T02:24:57;4.30;99.90
15178;DHT22;7689;53.612;-2.416;2023-01-23T02:27:23;4.30;99.90
15178;DHT22;7689;53.612;-2.416;2023-01-23T02:29:48;4.30;99.90
15178;DHT22;7689;53.612;-2.416;2023-01-23T02:32:16;4.30;99.90
15178;DHT22;7689;53.612;-2.416;2023-01-23T02:34:43;4.40;99.90
15178;DHT22;7689;53.612;-2.416;2023-01-23T02:37:09;4.10;99.90
15178;DHT22;7689;53.612;-2.416;2023-01-23T02:39:35;4.00;99.90
15178;DHT22;7689;53.612;-2.416;2023-01-23T02:42:01;4.00;99.90
15178;DHT22;7689;53.612;-2.416;2023-01-23T02:44:28;4.00;99.90
15178;DHT22;7689;53.612;-2.416;2023-01-23T02:46:57;4.10;99.90
15178;DHT22;7689;53.612;-2.416;2023-01-23T02:49:22;4.10;99.90
15178;DHT22;7689;53.612;-2.416;2023-01-23T02:51:48;4.10;99.90
15178;DHT22;7689;53.612;-2.416;2023-01-23T02:54:14;4.10;99.90
15178;DHT22;7689;53.612;-2.416;2023-01-23T02:56:41;4.10;99.90
15178;DHT22;7689;53.612;-2.416;2023-01-23T02:59:07;4.10;99.90
15178;DHT22;7689;53.612;-2.416;2023-01-23T03:01:51;4.10;99.90
15178;DHT22;7689;53.612;-2.416;2023-01-23T03:04:17;4.30;99.90
15178;DHT22;7689;53.612;-2.416;2023-01-23T03:06:42;4.20;99.90
15178;DHT22;7689;53.612;-2.416;2023-01-23T03:09:09;4.20;99.90
15178;DHT22;7689;53.612;-2.416;2023-01-23T03:11:36;4.20;99.90
15178;DHT22;7689;53.612;-2.416;2023-01-23T03:14:02;4.10;99.90
15178;DHT22;7689;53.612;-2.416;2023-01-23T03:16:28;4.20;99.90
15178;DHT22;7689;53.612;-2.416;2023-01-23T03:18:54;4.20;99.90
15178;DHT22;7689;53.612;-2.416;2023-01-23T03:21:21;4.10;99.90
15178;DHT22;7689;53.612;-2.416;2023-01-23T03:23:47;4.20;99.90
15178;DHT22;7689;53.612;-2.416;2023-01-23T03:26:13;4.20;99.90
15178;DHT22;7689;53.612;-2.416;2023-01-23T03:28:38;4.10;99.90
15178;DHT22;7689;53.612;-2.416;2023-01-23T03:31:22;4.00;99.90
15178;DHT22;7689;53.612;-2.416;2023-01-23T03:33:48;3.90;99.90
15178;DHT22;7689;53.612;-2.416;2023-01-23T03:36:14;3.90;99.90
15178;DHT22;7689;53.612;-2.416;2023-01-23T03:38:39;3.90;99.90
15178;DHT22;7689;53.612;-2.416;2023-01-23T03:41:25;3.90;99.90
15178;DHT22;7689;53.612;-2.416;2023-01-23T03:43:50;3.80;99.90
15178;DHT22;7689;53.612;-2.416;2023-01-23T03:46:16;3.70;99.90
15178;DHT22;7689;53.612;-2.416;2023-01-23T03:48:41;3.70;99.90
15178;DHT22;7689;53.612;-2.416;2023-01-23T03:51:07;3.70;99.90
15178;DHT22;7689;53.612;-2.416;2023-01-23T03:53:32;3.60;99.90
15178;DHT22;7689;53.612;-2.416;2023-01-23T03:55:58;3.70;99.90
15178;DHT22;7689;53.612;-2.416;2023-01-23T03:58:23;3.70;99.90
15178;DHT22;7689;53.612;-2.416;2023-01-23T04:00:49;3.60;99.90
15178;DHT22;7689;53.612;-2.416;2023-01-23T04:03:14;3.70;99.90
15178;DHT22;7689;53.612;-2.416;2023-01-23T04:05:40;3.60;99.90
15178;DHT22;7689;53.612;-2.416;2023-01-23T04:08:05;3.50;99.90
15178;DHT22;7689;53.612;-2.416;2023-01-23T04:10:31;3.60;99.90
15178;DHT22;7689;53.612;-2.416;2023-01-23T04:12:56;3.70;99.90
15178;DHT22;7689;53.612;-2.416;2023-01-23T04:15:22;3.60;99.90
15178;DHT22;7689;53.612;-2.416;2023-01-23T04:17:48;3.60;99.90
15178;DHT22;7689;53.612;-2.416;2023-01-23T04:20:13;3.60;99.90
15178;DHT22;7689;53.612;-2.416;2023-01-23T04:22:39;3.50;99.90
15178;DHT22;7689;53.612;-2.416;2023-01-23T04:25:05;3.60;99.90
15178;DHT22;7689;53.612;-2.416;2023-01-23T04:27:31;3.60;99.90
15178;DHT22;7689;53.612;-2.416;2023-01-23T04:29:56;3.50;99.90
15178;DHT22;7689;53.612;-2.416;2023-01-23T04:32:23;3.40;99.90
15178;DHT22;7689;53.612;-2.416;2023-01-23T04:34:49;3.40;99.90
15178;DHT22;7689;53.612;-2.416;2023-01-23T04:37:14;3.30;99.90
15178;DHT22;7689;53.612;-2.416;2023-01-23T04:39:40;3.30;99.90
15178;DHT22;7689;53.612;-2.416;2023-01-23T04:42:05;3.20;99.90
15178;DHT22;7689;53.612;-2.416;2023-01-23T04:44:31;3.10;99.90
15178;DHT22;7689;53.612;-2.416;2023-01-23T04:46:56;3.10;99.90
15178;DHT22;7689;53.612;-2.416;2023-01-23T04:49:23;3.10;99.90
15178;DHT22;7689;53.612;-2.416;2023-01-23T04:51:49;3.20;99.90
15178;DHT22;7689;53.612;-2.416;2023-01-23T04:54:15;3.20;99.90
15178;DHT22;7689;53.612;-2.416;2023-01-23T04:56:41;3.30;99.90
15178;DHT22;7689;53.612;-2.416;2023-01-23T04:59:07;3.30;99.90
15178;DHT22;7689;53.612;-2.416;2023-01-23T05:01:32;3.40;99.90
15178;DHT22;7689;53.612;-2.416;2023-01-23T05:03:58;3.40;99.90
15178;DHT22;7689;53.612;-2.416;2023-01-23T05:06:23;3.30;99.90
15178;DHT22;7689;53.612;-2.416;2023-01-23T05:08:49;3.40;99.90
15178;DHT22;7689;53.612;-2.416;2023-01-23T05:11:14;3.40;99.90
15178;DHT22;7689;53.612;-2.416;2023-01-23T05:13:40;3.30;99.90
15178;DHT22;7689;53.612;-2.416;2023-01-23T05:16:06;3.40;99.90
15178;DHT22;7689;53.612;-2.416;2023-01-23T05:18:31;3.40;99.90
15178;DHT22;7689;53.612;-2.416;2023-01-23T05:20:57;3.50;99.90
15178;DHT22;7689;53.612;-2.416;2023-01-23T05:23:22;3.50;99.90
15178;DHT22;7689;53.612;-2.416;2023-01-23T05:25:48;3.60;99.90
15178;DHT22;7689;53.612;-2.416;2023-01-23T05:28:13;3.70;99.90
15178;DHT22;7689;53.612;-2.416;2023-01-23T05:30:39;3.70;99.90
15178;DHT22;7689;53.612;-2.416;2023-01-23T05:33:04;3.80;99.90
15178;DHT22;7689;53.612;-2.416;2023-01-23T05:35:30;3.80;99.90
15178;DHT22;7689;53.612;-2.416;2023-01-23T05:37:56;3.80;99.90
15178;DHT22;7689;53.612;-2.416;2023-01-23T05:40:21;3.80;99.90
15178;DHT22;7689;53.612;-2.416;2023-01-23T05:42:47;3.80;99.90
15178;DHT22;7689;53.612;-2.416;2023-01-23T05:45:13;3.80;99.90
15178;DHT22;7689;53.612;-2.416;2023-01-23T05:47:39;3.80;99.90
15178;DHT22;7689;53.612;-2.416;2023-01-23T05:50:04;3.90;99.90
15178;DHT22;7689;53.612;-2.416;2023-01-23T05:52:30;3.90;99.90
15178;DHT22;7689;53.612;-2.416;2023-01-23T05:54:56;3.90;99.90
15178;DHT22;7689;53.612;-2.416;2023-01-23T05:57:21;4.00;99.90
15178;DHT22;7689;53.612;-2.416;2023-01-23T05:59:47;4.00;99.90
15178;DHT22;7689;53.612;-2.416;2023-01-23T06:02:12;4.00;99.90
15178;DHT22;7689;53.612;-2.416;2023-01-23T06:04:38;3.90;99.90
15178;DHT22;7689;53.612;-2.416;2023-01-23T06:07:03;4.40;99.90
15178;DHT22;7689;53.612;-2.416;2023-01-23T06:09:29;3.80;99.90
15178;DHT22;7689;53.612;-2.416;2023-01-23T06:11:54;3.90;99.90
15178;DHT22;7689;53.612;-2.416;2023-01-23T06:14:20;3.90;99.90
15178;DHT22;7689;53.612;-2.416;2023-01-23T06:16:45;4.00;99.90
15178;DHT22;7689;53.612;-2.416;2023-01-23T06:19:11;3.90;99.90
15178;DHT22;7689;53.612;-2.416;2023-01-23T06:21:36;3.90;99.90
15178;DHT22;7689;53.612;-2.416;2023-01-23T06:24:02;4.00;99.90
15178;DHT22;7689;53.612;-2.416;2023-01-23T06:26:27;3.90;99.90
15178;DHT22;7689;53.612;-2.416;2023-01-23T06:28:53;3.90;99.90
15178;DHT22;7689;53.612;-2.416;2023-01-23T06:31:18;4.00;99.90
15178;DHT22;7689;53.612;-2.416;2023-01-23T06:33:47;3.90;99.90
15178;DHT22;7689;53.612;-2.416;2023-01-23T06:36:14;3.80;99.90
15178;DHT22;7689;53.612;-2.416;2023-01-23T06:38:40;3.80;99.90
15178;DHT22;7689;53.612;-2.416;2023-01-23T06:41:06;3.80;99.90
15178;DHT22;7689;53.612;-2.416;2023-01-23T06:43:32;3.80;99.90
15178;DHT22;7689;53.612;-2.416;2023-01-23T06:45:57;3.80;99.90
15178;DHT22;7689;53.612;-2.416;2023-01-23T06:48:23;3.90;99.90
15178;DHT22;7689;53.612;-2.416;2023-01-23T06:50:49;3.90;99.90
15178;DHT22;7689;53.612;-2.416;2023-01-23T06:53:14;3.90;99.90
15178;DHT22;7689;53.612;-2.416;2023-01-23T06:55:40;3.90;99.90
15178;DHT22;7689;53.612;-2.416;2023-01-23T06:58:06;3.80;99.90
15178;DHT22;7689;53.612;-2.416;2023-01-23T07:00:31;3.80;99.90
15178;DHT22;7689;53.612;-2.416;2023-01-23T07:02:58;3.90;99.90
15178;DHT22;7689;53.612;-2.416;2023-01-23T07:05:28;3.90;99.90
15178;DHT22;7689;53.612;-2.416;2023-01-23T07:07:53;4.00;99.90
15178;DHT22;7689;53.612;-2.416;2023-01-23T07:10:20;3.90;99.90
15178;DHT22;7689;53.612;-2.416;2023-01-23T07:12:45;2.90;99.90
15178;DHT22;7689;53.612;-2.416;2023-01-23T07:15:11;4.00;99.90
15178;DHT22;7689;53.612;-2.416;2023-01-23T07:17:36;3.80;99.90
15178;DHT22;7689;53.612;-2.416;2023-01-23T07:20:02;3.80;99.90
15178;DHT22;7689;53.612;-2.416;2023-01-23T07:22:27;3.60;99.90
15178;DHT22;7689;53.612;-2.416;2023-01-23T07:24:53;3.70;99.90
15178;DHT22;7689;53.612;-2.416;2023-01-23T07:27:18;3.60;99.90
15178;DHT22;7689;53.612;-2.416;2023-01-23T07:29:44;3.60;99.90
15178;DHT22;7689;53.612;-2.416;2023-01-23T07:32:09;3.60;99.90
15178;DHT22;7689;53.612;-2.416;2023-01-23T07:34:35;3.60;99.90
15178;DHT22;7689;53.612;-2.416;2023-01-23T07:37:00;3.50;99.90
15178;DHT22;7689;53.612;-2.416;2023-01-23T07:39:26;3.50;99.90
15178;DHT22;7689;53.612;-2.416;2023-01-23T07:41:51;3.60;99.90
15178;DHT22;7689;53.612;-2.416;2023-01-23T07:44:17;2.40;99.90
15178;DHT22;7689;53.612;-2.416;2023-01-23T07:46:44;3.70;99.90
15178;DHT22;7689;53.612;-2.416;2023-01-23T07:49:10;3.60;99.90
15178;DHT22;7689;53.612;-2.416;2023-01-23T07:51:35;3.60;99.90
15178;DHT22;7689;53.612;-2.416;2023-01-23T07:54:01;3.60;99.90
15178;DHT22;7689;53.612;-2.416;2023-01-23T07:56:26;3.60;99.90
15178;DHT22;7689;53.612;-2.416;2023-01-23T07:58:52;3.60;99.90
15178;DHT22;7689;53.612;-2.416;2023-01-23T08:01:17;3.50;99.90
15178;DHT22;7689;53.612;-2.416;2023-01-23T08:03:44;3.40;99.90
15178;DHT22;7689;53.612;-2.416;2023-01-23T08:06:09;3.90;99.90
15178;DHT22;7689;53.612;-2.416;2023-01-23T08:08:35;3.50;99.90
15178;DHT22;7689;53.612;-2.416;2023-01-23T08:11:07;3.50;99.90
15178;DHT22;7689;53.612;-2.416;2023-01-23T08:13:34;3.50;99.90
15178;DHT22;7689;53.612;-2.416;2023-01-23T08:16:00;3.50;99.90
15178;DHT22;7689;53.612;-2.416;2023-01-23T08:18:25;3.40;99.90
15178;DHT22;7689;53.612;-2.416;2023-01-23T08:20:51;3.50;99.90
15178;DHT22;7689;53.612;-2.416;2023-01-23T08:23:17;3.60;99.90
15178;DHT22;7689;53.612;-2.416;2023-01-23T08:25:43;3.70;99.90
15178;DHT22;7689;53.612;-2.416;2023-01-23T08:28:08;3.70;99.90
15178;DHT22;7689;53.612;-2.416;2023-01-23T08:30:33;3.80;99.90
15178;DHT22;7689;53.612;-2.416;2023-01-23T08:32:59;3.70;99.90
15178;DHT22;7689;53.612;-2.416;2023-01-23T08:35:24;3.70;99.90
15178;DHT22;7689;53.612;-2.416;2023-01-23T08:37:50;3.70;99.90
15178;DHT22;7689;53.612;-2.416;2023-01-23T08:40:15;3.70;99.90
15178;DHT22;7689;53.612;-2.416;2023-01-23T08:42:41;3.70;99.90
15178;DHT22;7689;53.612;-2.416;2023-01-23T08:45:07;3.70;99.90
15178;DHT22;7689;53.612;-2.416;2023-01-23T08:47:32;3.70;99.90
15178;DHT22;7689;53.612;-2.416;2023-01-23T08:50:01;3.80;99.90
15178;DHT22;7689;53.612;-2.416;2023-01-23T08:52:26;3.80;99.90
15178;DHT22;7689;53.612;-2.416;2023-01-23T08:54:52;3.90;99.90
15178;DHT22;7689;53.612;-2.416;2023-01-23T08:57:17;4.00;99.90
15178;DHT22;7689;53.612;-2.416;2023-01-23T08:59:42;4.10;99.90
15178;DHT22;7689;53.612;-2.416;2023-01-23T09:02:10;4.10;99.90
15178;DHT22;7689;53.612;-2.416;2023-01-23T09:04:35;4.10;99.90
15178;DHT22;7689;53.612;-2.416;2023-01-23T09:07:01;4.10;99.90
15178;DHT22;7689;53.612;-2.416;2023-01-23T09:09:27;4.00;99.90
15178;DHT22;7689;53.612;-2.416;2023-01-23T09:11:53;4.00;99.90
15178;DHT22;7689;53.612;-2.416;2023-01-23T09:14:19;4.00;99.90
15178;DHT22;7689;53.612;-2.416;2023-01-23T09:16:44;4.10;99.90
15178;DHT22;7689;53.612;-2.416;2023-01-23T09:19:10;4.20;99.90
15178;DHT22;7689;53.612;-2.416;2023-01-23T09:21:37;4.20;99.90
15178;DHT22;7689;53.612;-2.416;2023-01-23T09:24:02;4.30;99.90
15178;DHT22;7689;53.612;-2.416;2023-01-23T09:26:28;4.30;99.90
15178;DHT22;7689;53.612;-2.416;2023-01-23T09:28:54;4.40;99.90
15178;DHT22;7689;53.612;-2.416;2023-01-23T09:31:19;4.50;99.90
15178;DHT22;7689;53.612;-2.416;2023-01-23T09:33:46;4.50;99.90
15178;DHT22;7689;53.612;-2.416;2023-01-23T09:36:12;4.50;99.90
15178;DHT22;7689;53.612;-2.416;2023-01-23T09:38:37;4.60;99.90
15178;DHT22;7689;53.612;-2.416;2023-01-23T09:41:12;4.70;99.90
15178;DHT22;7689;53.612;-2.416;2023-01-23T09:43:44;4.80;99.90
15178;DHT22;7689;53.612;-2.416;2023-01-23T09:46:19;4.80;99.90
15178;DHT22;7689;53.612;-2.416;2023-01-23T09:48:47;4.80;99.90
15178;DHT22;7689;53.612;-2.416;2023-01-23T09:51:15;4.90;99.90
15178;DHT22;7689;53.612;-2.416;2023-01-23T09:53:44;5.00;99.90
15178;DHT22;7689;53.612;-2.416;2023-01-23T09:56:33;4.90;99.90
15178;DHT22;7689;53.612;-2.416;2023-01-23T09:59:10;4.80;99.90
15178;DHT22;7689;53.612;-2.416;2023-01-23T10:01:36;4.90;99.90
15178;DHT22;7689;53.612;-2.416;2023-01-23T10:04:02;4.90;99.90
15178;DHT22;7689;53.612;-2.416;2023-01-23T10:06:29;4.90;99.90
15178;DHT22;7689;53.612;-2.416;2023-01-23T10:11:43;5.00;99.90
15178;DHT22;7689;53.612;-2.416;2023-01-23T10:21:54;5.30;99.90
15178;DHT22;7689;53.612;-2.416;2023-01-23T10:24:32;5.30;99.90
15178;DHT22;7689;53.612;-2.416;2023-01-23T10:27:03;5.30;99.90
15178;DHT22;7689;53.612;-2.416;2023-01-23T10:29:35;5.40;99.90
15178;DHT22;7689;53.612;-2.416;2023-01-23T10:32:02;5.40;99.90
15178;DHT22;7689;53.612;-2.416;2023-01-23T10:34:34;5.40;99.90
15178;DHT22;7689;53.612;-2.416;2023-01-23T10:37:14;5.50;99.90
15178;DHT22;7689;53.612;-2.416;2023-01-23T10:40:02;5.50;99.90
15178;DHT22;7689;53.612;-2.416;2023-01-23T10:42:29;5.40;99.90
15178;DHT22;7689;53.612;-2.416;2023-01-23T10:44:55;5.50;99.90
15178;DHT22;7689;53.612;-2.416;2023-01-23T10:50:04;5.70;99.90
15178;DHT22;7689;53.612;-2.416;2023-01-23T10:52:40;5.90;99.90
15178;DHT22;7689;53.612;-2.416;2023-01-23T10:57:45;6.00;99.90
15178;DHT22;7689;53.612;-2.416;2023-01-23T11:02:40;6.20;99.90
15178;DHT22;7689;53.612;-2.416;2023-01-23T11:07:52;6.40;99.90
15178;DHT22;7689;53.612;-2.416;2023-01-23T11:10:19;6.50;99.90
15178;DHT22;7689;53.612;-2.416;2023-01-23T11:12:49;6.50;99.90
15178;DHT22;7689;53.612;-2.416;2023-01-23T11:15:25;6.40;99.90
15178;DHT22;7689;53.612;-2.416;2023-01-23T11:17:53;6.30;99.90
15178;DHT22;7689;53.612;-2.416;2023-01-23T11:20:32;6.50;99.90
15178;DHT22;7689;53.612;-2.416;2023-01-23T11:23:03;6.50;99.90
15178;DHT22;7689;53.612;-2.416;2023-01-23T11:25:30;6.60;99.90
15178;DHT22;7689;53.612;-2.416;2023-01-23T11:27:57;6.70;99.90
15178;DHT22;7689;53.612;-2.416;2023-01-23T11:30:29;6.50;99.90
15178;DHT22;7689;53.612;-2.416;2023-01-23T11:32:58;6.60;99.90
15178;DHT22;7689;53.612;-2.416;2023-01-23T11:35:38;6.50;99.90
15178;DHT22;7689;53.612;-2.416;2023-01-23T11:38:08;6.50;99.90
15178;DHT22;7689;53.612;-2.416;2023-01-23T11:40:35;6.50;99.90
15178;DHT22;7689;53.612;-2.416;2023-01-23T11:43:01;6.30;99.90
15178;DHT22;7689;53.612;-2.416;2023-01-23T11:50:24;6.80;99.90
15178;DHT22;7689;53.612;-2.416;2023-01-23T12:03:10;7.10;99.90
15178;DHT22;7689;53.612;-2.416;2023-01-23T12:08:34;7.00;99.90
15178;DHT22;7689;53.612;-2.416;2023-01-23T12:11:17;7.00;99.90
15178;DHT22;7689;53.612;-2.416;2023-01-23T12:26:53;7.30;99.90
15178;DHT22;7689;53.612;-2.416;2023-01-23T12:29:30;7.40;99.90
15178;DHT22;7689;53.612;-2.416;2023-01-23T12:32:03;7.40;99.90
15178;DHT22;7689;53.612;-2.416;2023-01-23T12:42:28;7.50;99.90
15178;DHT22;7689;53.612;-2.416;2023-01-23T12:50:19;7.70;99.90
15178;DHT22;7689;53.612;-2.416;2023-01-23T12:52:48;7.80;99.90
15178;DHT22;7689;53.612;-2.416;2023-01-23T12:57:42;7.70;99.90
15178;DHT22;7689;53.612;-2.416;2023-01-23T13:00:15;7.60;99.90
15178;DHT22;7689;53.612;-2.416;2023-01-23T13:02:46;7.60;99.90
15178;DHT22;7689;53.612;-2.416;2023-01-23T13:05:26;7.60;99.90
15178;DHT22;7689;53.612;-2.416;2023-01-23T13:10:26;7.40;99.90
15178;DHT22;7689;53.612;-2.416;2023-01-23T13:13:14;7.40;99.90
15178;DHT22;7689;53.612;-2.416;2023-01-23T13:15:40;7.40;99.90
15178;DHT22;7689;53.612;-2.416;2023-01-23T13:18:16;7.60;99.90
15178;DHT22;7689;53.612;-2.416;2023-01-23T13:20:53;7.60;99.90
15178;DHT22;7689;53.612;-2.416;2023-01-23T13:23:38;7.60;99.90
15178;DHT22;7689;53.612;-2.416;2023-01-23T13:28:44;7.70;99.90
15178;DHT22;7689;53.612;-2.416;2023-01-23T13:33:49;7.90;99.90
15178;DHT22;7689;53.612;-2.416;2023-01-23T13:36:36;7.50;99.90
15178;DHT22;7689;53.612;-2.416;2023-01-23T13:41:39;7.30;99.90
15178;DHT22;7689;53.612;-2.416;2023-01-23T13:46:55;7.40;99.90
15178;DHT22;7689;53.612;-2.416;2023-01-23T13:52:10;7.20;99.90
15178;DHT22;7689;53.612;-2.416;2023-01-23T13:54:56;7.10;99.90
15178;DHT22;7689;53.612;-2.416;2023-01-23T13:57:41;7.20;99.90
15178;DHT22;7689;53.612;-2.416;2023-01-23T14:00:11;7.40;99.90
15178;DHT22;7689;53.612;-2.416;2023-01-23T14:02:38;7.40;99.90
15178;DHT22;7689;53.612;-2.416;2023-01-23T14:05:28;7.40;99.90
15178;DHT22;7689;53.612;-2.416;2023-01-23T14:08:01;7.40;99.90
15178;DHT22;7689;53.612;-2.416;2023-01-23T14:10:30;7.40;99.90
15178;DHT22;7689;53.612;-2.416;2023-01-23T14:13:03;7.20;99.90
15178;DHT22;7689;53.612;-2.416;2023-01-23T14:15:29;7.20;99.90
15178;DHT22;7689;53.612;-2.416;2023-01-23T14:18:17;7.30;99.90
15178;DHT22;7689;53.612;-2.416;2023-01-23T14:20:44;7.40;99.90
15178;DHT22;7689;53.612;-2.416;2023-01-23T14:23:15;7.40;99.90
15178;DHT22;7689;53.612;-2.416;2023-01-23T14:25:41;7.40;99.90
15178;DHT22;7689;53.612;-2.416;2023-01-23T14:28:11;7.30;99.90
15178;DHT22;7689;53.612;-2.416;2023-01-23T14:30:39;7.40;99.90
15178;DHT22;7689;53.612;-2.416;2023-01-23T14:33:14;6.60;99.90
15178;DHT22;7689;53.612;-2.416;2023-01-23T14:35:41;7.40;99.90
15178;DHT22;7689;53.612;-2.416;2023-01-23T14:38:07;7.50;99.90
15178;DHT22;7689;53.612;-2.416;2023-01-23T14:40:32;7.40;99.90
15178;DHT22;7689;53.612;-2.416;2023-01-23T14:43:03;7.40;99.90
15178;DHT22;7689;53.612;-2.416;2023-01-23T14:45:32;7.40;99.90
15178;DHT22;7689;53.612;-2.416;2023-01-23T14:47:57;7.60;99.90
15178;DHT22;7689;53.612;-2.416;2023-01-23T14:50:24;7.60;99.90
15178;DHT22;7689;53.612;-2.416;2023-01-23T14:52:59;7.50;99.90
15178;DHT22;7689;53.612;-2.416;2023-01-23T14:55:25;7.50;99.90
15178;DHT22;7689;53.612;-2.416;2023-01-23T14:57:52;7.40;99.90
15178;DHT22;7689;53.612;-2.416;2023-01-23T15:00:19;7.40;99.90
15178;DHT22;7689;53.612;-2.416;2023-01-23T15:02:45;7.50;99.90
15178;DHT22;7689;53.612;-2.416;2023-01-23T15:05:19;7.40;99.90
15178;DHT22;7689;53.612;-2.416;2023-01-23T15:10:16;7.30;99.90
15178;DHT22;7689;53.612;-2.416;2023-01-23T15:12:46;7.30;99.90
15178;DHT22;7689;53.612;-2.416;2023-01-23T15:15:19;7.20;99.90
15178;DHT22;7689;53.612;-2.416;2023-01-23T15:17:45;7.10;99.90
15178;DHT22;7689;53.612;-2.416;2023-01-23T15:22:55;7.30;99.90
15178;DHT22;7689;53.612;-2.416;2023-01-23T15:25:28;7.20;99.90
15178;DHT22;7689;53.612;-2.416;2023-01-23T15:27:54;7.20;99.90
15178;DHT22;7689;53.612;-2.416;2023-01-23T15:32:57;7.30;99.90
15178;DHT22;7689;53.612;-2.416;2023-01-23T15:35:24;7.20;99.90
15178;DHT22;7689;53.612;-2.416;2023-01-23T15:37:50;7.20;99.90
15178;DHT22;7689;53.612;-2.416;2023-01-23T15:40:23;7.20;99.90
15178;DHT22;7689;53.612;-2.416;2023-01-23T15:42:59;7.30;99.90
15178;DHT22;7689;53.612;-2.416;2023-01-23T15:45:25;7.30;99.90
15178;DHT22;7689;53.612;-2.416;2023-01-23T15:47:51;7.30;99.90
15178;DHT22;7689;53.612;-2.416;2023-01-23T15:50:16;7.30;99.90
15178;DHT22;7689;53.612;-2.416;2023-01-23T15:55:10;7.20;99.90
15178;DHT22;7689;53.612;-2.416;2023-01-23T15:57:36;7.20;99.90
15178;DHT22;7689;53.612;-2.416;2023-01-23T16:00:12;7.10;99.90
15178;DHT22;7689;53.612;-2.416;2023-01-23T16:02:38;7.10;99.90
15178;DHT22;7689;53.612;-2.416;2023-01-23T16:05:03;7.10;99.90
15178;DHT22;7689;53.612;-2.416;2023-01-23T16:07:30;6.90;99.90
15178;DHT22;7689;53.612;-2.416;2023-01-23T16:09:55;6.80;99.90
15178;DHT22;7689;53.612;-2.416;2023-01-23T16:12:23;6.70;99.90
15178;DHT22;7689;53.612;-2.416;2023-01-23T16:14:51;6.60;99.90
15178;DHT22;7689;53.612;-2.416;2023-01-23T16:17:16;6.50;99.90
15178;DHT22;7689;53.612;-2.416;2023-01-23T16:19:42;6.50;99.90
15178;DHT22;7689;53.612;-2.416;2023-01-23T16:22:10;6.60;99.90
15178;DHT22;7689;53.612;-2.416;2023-01-23T16:24:36;6.60;99.90
15178;DHT22;7689;53.612;-2.416;2023-01-23T16:27:03;6.60;99.90
15178;DHT22;7689;53.612;-2.416;2023-01-23T16:29:29;6.60;99.90
15178;DHT22;7689;53.612;-2.416;2023-01-23T16:31:55;6.70;99.90
15178;DHT22;7689;53.612;-2.416;2023-01-23T16:34:21;6.60;99.90
15178;DHT22;7689;53.612;-2.416;2023-01-23T16:36:47;6.50;99.90
15178;DHT22;7689;53.612;-2.416;2023-01-23T16:39:16;6.50;99.90
15178;DHT22;7689;53.612;-2.416;2023-01-23T16:41:43;6.40;99.90
15178;DHT22;7689;53.612;-2.416;2023-01-23T16:44:12;6.40;99.90
15178;DHT22;7689;53.612;-2.416;2023-01-23T16:46:38;6.40;99.90
15178;DHT22;7689;53.612;-2.416;2023-01-23T16:49:04;6.30;99.90
15178;DHT22;7689;53.612;-2.416;2023-01-23T16:51:29;6.30;99.90
15178;DHT22;7689;53.612;-2.416;2023-01-23T16:53:56;6.30;99.90
15178;DHT22;7689;53.612;-2.416;2023-01-23T16:56:27;6.30;99.90
15178;DHT22;7689;53.612;-2.416;2023-01-23T16:58:54;6.30;99.90
15178;DHT22;7689;53.612;-2.416;2023-01-23T17:01:20;6.20;99.90
15178;DHT22;7689;53.612;-2.416;2023-01-23T17:03:56;6.30;99.90
15178;DHT22;7689;53.612;-2.416;2023-01-23T17:06:23;6.30;99.90
15178;DHT22;7689;53.612;-2.416;2023-01-23T17:08:48;6.20;99.90
15178;DHT22;7689;53.612;-2.416;2023-01-23T17:11:19;6.10;99.90
15178;DHT22;7689;53.612;-2.416;2023-01-23T17:13:45;5.90;99.90
15178;DHT22;7689;53.612;-2.416;2023-01-23T17:16:11;5.90;99.90
15178;DHT22;7689;53.612;-2.416;2023-01-23T17:18:36;5.80;99.90
15178;DHT22;7689;53.612;-2.416;2023-01-23T17:21:02;5.90;99.90
15178;DHT22;7689;53.612;-2.416;2023-01-23T17:23:28;5.90;99.90
15178;DHT22;7689;53.612;-2.416;2023-01-23T17:25:53;5.80;99.90